ADDS METAR Data INFO
IDs: Format: Raw Decoded Include TAF

Data at: 2054 UTC 24 Jun 2017

KF05 242035Z AUTO 11004KT 10SM BKN025 BKN035 26/17 A3017 RMK AO1 T02620170
KF05 242015Z AUTO 00000KT 10SM SCT023 SCT029 SCT037 26/17 A3018 RMK AO1 T02600168
KF05 241955Z AUTO 00000KT 10SM BKN037 OVC070 25/17 A3019 RMK AO1 T02510169
KF05 241935Z AUTO 13003KT 10SM BKN021 OVC039 25/17 A3020 RMK AO1 T02460170
KF05 241915Z AUTO 09003KT 10SM BKN021 OVC026 24/17 A3020 RMK AO1 T02440168
KF05 241855Z AUTO 13003KT 10SM BKN021 OVC026 24/17 A3021 RMK AO1 T02410170
KF05 241835Z AUTO 14006KT 10SM OVC021 24/17 A3021 RMK AO1 T02390168
KF05 241815Z AUTO 14006KT 10SM OVC021 24/16 A3022 RMK AO1 T02360164
KF05 241755Z AUTO 12005KT 10SM OVC021 24/16 A3022 RMK AO1 6//// T02360161
KF05 241735Z AUTO 10006KT 10SM BKN023 BKN044 OVC049 24/16 A3022 RMK AO1 T02350161
KF05 241715Z AUTO 11008KT 10SM SCT030 SCT041 OVC047 23/16 A3022 RMK AO1 T02280159
KF05 241655Z AUTO 10010KT 10SM BKN030 OVC042 22/16 A3022 RMK AO1 T02200160
KF05 241635Z AUTO 09008KT 10SM SCT026 BKN040 OVC047 21/16 A3023 RMK AO1 T02140160
KF05 241615Z AUTO 09008KT 10SM BKN024 BKN034 OVC040 21/16 A3023 RMK AO1 T02100160
KF05 241555Z AUTO 09009G13KT 10SM A3020 RMK AO1
KF05 241535Z AUTO 07005KT 10SM TS BKN025 OVC033 20/16 A3024 RMK AO1 LTG DSNT SW THRU NW T02040156
KF05 241515Z AUTO 04006KT 10SM BKN035 BKN120 20/16 A3022 RMK AO1 T02010164
KF05 241455Z AUTO 05009KT 10SM SCT120 20/17 A3019 RMK AO1 6//// T01960165
KF05 241435Z AUTO 07011KT 10SM A3018 RMK AO1 LTG DSNT S AND NW
KF05 241415Z AUTO 07011KT 10SM SCT070 BKN090 20/16 A3020 RMK AO1 T01950160
KF05 241355Z AUTO 05005KT 10SM SCT090 SCT120 20/16 A3021 RMK AO1 LTG DSNT SE AND S T01950160
KF05 241335Z AUTO 06006KT 10SM CLR 19/16 A3022 RMK AO1 LTG DSNT NE T01940159
KF05 241315Z AUTO 02003KT 10SM SCT041 SCT050 SCT060 19/16 A3022 RMK AO1 LTG DSNT S T01920164
KF05 241255Z AUTO 05006KT 10SM SCT039 BKN055 OVC065 19/16 A3020 RMK AO1 LTG DSNT S P0005 T01920162
KF05 241235Z AUTO 31003KT 10SM SCT039 SCT047 OVC060 19/16 A3021 RMK AO1 LTG DSNT S P0003 T01920164
KF05 241215Z AUTO 34006KT 10SM SCT045 BKN050 OVC090 19/17 A3020 RMK AO1 LTG DSNT E P0001 T01920165
KF05 241155Z AUTO 05010KT 10SM SCT060 SCT070 BKN090 19/16 A3014 RMK AO1 LTG DSNT NE AND S P0002 6//// 7//// T01910164
KF05 241135Z AUTO 03007KT 10SM SCT050 SCT070 SCT090 19/17 A3013 RMK AO1 LTG DSNT N NE AND SW P0001 T01890167
KF05 241115Z AUTO 01008KT 10SM BKN050 BKN070 OVC085 19/17 A3013 RMK AO1 LTG DSNT E THRU W P0001 T01860167
KF05 241055Z AUTO 01008KT 10SM VCTS SCT048 BKN090 OVC110 19/17 A3014 RMK AO1 LTG DSNT SE THRU SW P0006 T01850167
KF05 241035Z AUTO 36009KT 10SM SCT046 BKN090 OVC110 19/17 A3013 RMK AO1 LTG DSNT E P0005 T01850166
KF05 241015Z AUTO 35010KT 10SM TS SCT065 SCT080 OVC090 19/17 A3011 RMK AO1 LTG DSNT ALQS P0002 T01850167
KF05 240955Z AUTO 03009KT 10SM VCTS SCT031 BKN070 OVC085 19/17 A3008 RMK AO1 LTG DSNT ALQS P0017 T01860169
KF05 240935Z AUTO 05011KT 7SM VCTS SCT019 BKN035 OVC050 19/17 A3008 RMK AO1 LTG DSNT ALQS P0016 T01850167
KF05 240915Z AUTO 07006KT 4SM TS 19/17 A3012 RMK AO1 LTG DSNT ALQS P0010 T01850167
KF05 240855Z AUTO 02009KT TS A3014 RMK AO1 LTG DSNT ALQS P0006 6////
KF05 240835Z AUTO 02012G25KT 1SM TS 19/17 A3014 RMK AO1 LTG DSNT ALQS P0038 T01850166
KF05 240815Z AUTO 01019KT TS A3009 RMK AO1 LTG DSNT ALQS P0001
KF05 240755Z AUTO 06021G27KT 10SM TS A3006 RMK AO1 LTG DSNT ALQS
KF05 240735Z AUTO 01024G28KT 7SM TS SCT045 OVC049 19/16 A3008 RMK AO1 LTG DSNT ALQS P0011 T01890161
KF05 240715Z AUTO 02021G33KT 4SM TS 21/15 A3004 RMK AO1 LTG DSNT ALQS P0009 T02070146
KF05 240700Z AUTO 34016KT TS A3006 RMK AO1 LTG DSNT NW THRU NE P0002
KF05 240635Z AUTO 04010KT 10SM OVC045 26/09 A3003 RMK AO1 LTG DSNT NW THRU NE T02570092
KF05 240615Z AUTO 05011KT 10SM OVC045 26/10 A3004 RMK AO1 LTG DSNT N T02560095
KF05 240555Z AUTO 04009KT 10SM OVC045 26/09 A3003 RMK AO1 LTG DSNT N T02570094 10384 20239 403840239
KF05 240535Z AUTO 03011KT 10SM SCT045 BKN070 BKN080 26/09 A3004 RMK AO1 T02610089
KF05 240515Z AUTO 03013KT 10SM SCT047 SCT060 BKN070 27/08 A3003 RMK AO1 T02680084
KF05 240455Z AUTO 03012G16KT 10SM SCT047 SCT060 SCT070 27/08 A3003 RMK AO1 T02700082
KF05 240435Z AUTO 04011KT 10SM SCT047 27/08 A3002 RMK AO1 T02730080
KF05 240415Z AUTO 04013KT 10SM CLR 28/08 A3000 RMK AO1 T02760077
KF05 240355Z AUTO 04014G17KT 10SM BKN050 28/08 A2999 RMK AO1 T02780076
KF05 240335Z AUTO 04013G18KT 10SM SCT050 BKN070 28/08 A2999 RMK AO1 T02790075
KF05 240315Z AUTO 03013G19KT 10SM SCT050 SCT070 28/08 A2998 RMK AO1 T02820075
KF05 240255Z AUTO 03015KT 10SM SCT070 SCT080 29/07 A2997 RMK AO1 T02870073
KF05 240235Z AUTO 04017G23KT 10SM CLR 30/09 A2996 RMK AO1 T02970087
KF05 240215Z AUTO 02014G19KT 10SM SCT090 32/15 A2994 RMK AO1 T03150154
KF05 240155Z AUTO 05015G18KT 10SM BKN090 32/16 A2992 RMK AO1 T03220159
KF05 240135Z AUTO 06011KT 10SM SCT090 32/16 A2991 RMK AO1 T03240164
KF05 240115Z AUTO 05016G23KT 10SM CLR 33/17 A2991 RMK AO1 T03300165
KF05 240055Z AUTO 05016G21KT 10SM CLR 34/16 A2990 RMK AO1 T03360162
KF05 240035Z AUTO 06016KT 10SM CLR 34/16 A2989 RMK AO1 T03400159
KF05 240015Z AUTO 05013KT 10SM SCT075 SCT085 35/16 A2988 RMK AO1 T03490156
KF05 232355Z AUTO 06019G22KT 10SM BKN085 35/15 A2986 RMK AO1 T03530152 10384 20239
KF05 232335Z AUTO 07017G22KT 10SM SCT085 36/15 A2986 RMK AO1 T03600145
KF05 232315Z AUTO 07018KT 10SM CLR 37/14 A2985 RMK AO1 T03690136
KF05 232255Z AUTO 06018G22KT 10SM SCT075 37/14 A2985 RMK AO1 T03650136
KF05 232235Z AUTO 06018G22KT 10SM BKN075 BKN085 37/13 A2985 RMK AO1 T03720134
KF05 232215Z AUTO 08014G17KT 10SM SCT075 SCT085 38/12 A2984 RMK AO1 T03780121
KF05 232155Z AUTO 06011KT 10SM SCT075 38/13 A2984 RMK AO1 T03780126
KF05 232135Z AUTO 04010G14KT 10SM SCT075 38/11 A2984 RMK AO1 LTG DSNT SW T03840107
KF05 232115Z AUTO 10009KT 10SM CLR 38/10 A2985 RMK AO1 T03820103
KF05 232055Z AUTO 08008KT 10SM CLR 38/10 A2985 RMK AO1 T03770103
KF05 232035Z AUTO 09007KT 10SM CLR 37/10 A2985 RMK AO1 T03700104
KF05 232015Z AUTO 09008KT 10SM CLR 37/11 A2986 RMK AO1 T03650105
KF05 231955Z AUTO 09008KT 10SM CLR 37/11 A2985 RMK AO1 T03670108
KF05 231935Z AUTO 07009KT 10SM CLR 37/11 A2986 RMK AO1 T03690109
KF05 231915Z AUTO 06009KT 10SM CLR 37/11 A2985 RMK AO1 T03680113
KF05 231855Z AUTO 07012KT 10SM CLR 37/11 A2984 RMK AO1 T03690109
KF05 231835Z AUTO 07008G14KT 10SM CLR 37/11 A2985 RMK AO1 T03730112
KF05 231815Z AUTO 06008G15KT 10SM CLR 37/12 A2985 RMK AO1 T03670124
KF05 231755Z AUTO 04007KT 10SM CLR 37/14 A2985 RMK AO1 T03650135 10365 20239
KF05 231735Z AUTO 05009G14KT 10SM CLR 36/15 A2984 RMK AO1 LTG DSNT NW T03550151
KF05 231715Z AUTO 04009G14KT 10SM CLR 35/15 A2985 RMK AO1 LTG DSNT N T03500149
KF05 231655Z AUTO 01010KT 10SM CLR 34/16 A2985 RMK AO1 T03390160
KF05 231635Z AUTO 06008KT 10SM CLR 33/18 A2984 RMK AO1 T03300177
KF05 231615Z AUTO 04006KT 10SM CLR 32/18 A2984 RMK AO1 T03190178
KF05 231555Z AUTO 09005KT 10SM CLR 31/18 A2982 RMK AO1 T03100184
KF05 231535Z AUTO 11005KT 10SM CLR 30/19 A2981 RMK AO1 T03020187
KF05 231515Z AUTO 17006KT 10SM CLR 29/19 A2980 RMK AO1 T02940187
KF05 231455Z AUTO 15006KT 10SM CLR 29/19 A2979 RMK AO1 T02860191
KF05 231435Z AUTO 13004KT 10SM CLR 27/19 A2980 RMK AO1 T02740192
KF05 231415Z AUTO 09004KT 10SM CLR 27/19 A2981 RMK AO1 LTG DSNT NW T02690192
KF05 231355Z AUTO 05003KT 10SM CLR 26/19 A2980 RMK AO1 T02640194
KF05 231335Z AUTO 18010KT 10SM CLR 26/19 A2976 RMK AO1 T02630194
KF05 231315Z AUTO 11003KT 10SM CLR 26/19 A2979 RMK AO1 T02560192
KF05 231255Z AUTO 00000KT 10SM CLR 25/19 A2979 RMK AO1 T02480193
KF05 231235Z AUTO 11004KT 10SM CLR 25/19 A2978 RMK AO1 T02460191
KF05 231215Z AUTO 05005KT 10SM CLR 25/19 A2980 RMK AO1 T02450190
KF05 231155Z AUTO 36013G22KT 10SM CLR 24/19 A2981 RMK AO1 7//// T02400187 10356 20239
KF05 231135Z AUTO 01004KT 10SM CLR 24/19 A2979 RMK AO1 T02400186
KF05 231115Z AUTO 35004KT 10SM CLR 24/19 A2979 RMK AO1 T02390185
KF05 231055Z AUTO 36004KT 10SM CLR 24/19 A2978 RMK AO1 LTG DSNT NW T02410185
KF05 231035Z AUTO 00000KT 10SM CLR 25/19 A2977 RMK AO1 T02450188
KF05 231015Z AUTO 00000KT 10SM CLR 25/19 A2976 RMK AO1 T02460189
KF05 230955Z AUTO 00000KT 10SM CLR 25/19 A2976 RMK AO1 T02480189
KF05 230935Z AUTO 15005KT 10SM CLR 25/19 A2975 RMK AO1 T02520188
KF05 230915Z AUTO 12005KT 10SM CLR 25/19 A2974 RMK AO1 T02540189
KF05 230855Z AUTO 15007KT 10SM CLR 26/19 A2973 RMK AO1 T02570188


Page loaded:  20:54 UTC  |   01:54 PM Pacific  |   02:54 PM Mountain  |   03:54 PM Central  |   04:54 PM Eastern

 

ADVISORIES

FORECASTS

FORECASTS

OBSERVATIONS

USER TOOLS

ABOUT US